Portada
METAR-TAF:

METAR-TAF

Aeroports :

Saint-Pierre, Reunió

latitud: 21-20S, longitud: 055-29E, altitud: 52 m

Observació

L'informe es va fer fa 43 minuts, a les 18:30 UTC
Vent 2 kt amb direcció variable
Temperatura 24°C
Humitat 83%
Pressió 1017 hPa
Visibilitat 10 km o més
Núvols disperses a una alçada de 9600 ft

METAR: FMEP 071830Z AUTO VRB02KT 9999 SCT096 24/21 Q1017

Hora: 23:13 (19:13 UTC)

Pronòstic

L'informe es va fer fa 8 hores i 13 minuts, a les 11:00 UTC
Pronòstic vàlid del 07 a les 12 UTC al 07 a les 21 UTC
Vent 20 kt del Est/Sud-Est
Visibilitat 10 km o més
Núvols disperses a una alçada de 2300 ft

TAF: FMEP 071100Z 0712/0721 12020KT 9999 SCT023

Observacions i pronòstics meteorològics de més de 4000 aeroports (METAR i TAF).

Les estacions disponibles són els punts grocs i vermells al mapa.

Posi el ratolí al punt desitjat per veure el nom de l'estació.

Feu clic per veure les observacions i els pronòstics meteorològics.

Per canviar el mapa: feu clic els botons verds amb una creu de color negre per apropar; al botó verd amb un guió per allunyar la imatge; o en les fletxes verdes per a mapes adjacents.


METAR-TAF: